createdAt,value
2022-09-24T00:01:51.825Z,13.70
2022-09-24T00:04:20.124Z,13.60
2022-09-24T00:06:48.317Z,13.60
2022-09-24T00:09:19.463Z,13.60
2022-09-24T00:11:47.407Z,13.50
2022-09-24T00:14:14.810Z,13.40
2022-09-24T00:16:44.051Z,13.40
2022-09-24T00:19:13.819Z,13.40
2022-09-24T00:21:41.983Z,13.40
2022-09-24T00:24:33.162Z,13.30
2022-09-24T00:27:02.922Z,13.30
2022-09-24T00:29:33.952Z,13.30
2022-09-24T00:32:02.474Z,13.20
2022-09-24T00:34:30.083Z,13.20
2022-09-24T00:36:57.631Z,13.20
2022-09-24T00:39:25.162Z,13.20
2022-09-24T00:41:52.626Z,13.10
2022-09-24T00:44:39.080Z,13.10
2022-09-24T00:47:27.414Z,13.10
2022-09-24T00:50:17.753Z,13.10
2022-09-24T00:53:08.484Z,13.00
2022-09-24T00:55:38.328Z,13.00
2022-09-24T00:58:08.335Z,13.00
2022-09-24T01:00:40.340Z,13.00
2022-09-24T01:03:13.286Z,12.90
2022-09-24T01:05:40.850Z,12.90
2022-09-24T01:08:13.021Z,12.80
2022-09-24T01:10:48.875Z,12.80
2022-09-24T01:13:30.391Z,12.80
2022-09-24T01:16:18.146Z,12.70
2022-09-24T01:19:12.244Z,12.70
2022-09-24T01:21:49.408Z,12.70
2022-09-24T01:24:57.903Z,12.70
2022-09-24T01:27:45.541Z,12.70
2022-09-24T01:30:15.229Z,12.80
2022-09-24T01:32:55.781Z,12.80
2022-09-24T01:35:51.194Z,12.80
2022-09-24T01:38:31.095Z,12.80
2022-09-24T01:41:02.761Z,12.70
2022-09-24T01:43:32.104Z,12.70
2022-09-24T01:46:03.652Z,12.80
2022-09-24T01:48:33.151Z,12.80
2022-09-24T01:51:14.639Z,12.80
2022-09-24T01:53:45.497Z,12.80
2022-09-24T01:56:28.509Z,12.70
2022-09-24T01:59:20.102Z,12.70
2022-09-24T02:02:06.502Z,12.70
2022-09-24T02:04:39.051Z,12.70
2022-09-24T02:07:30.453Z,12.70
2022-09-24T02:09:57.886Z,12.70
2022-09-24T02:12:42.379Z,12.50
2022-09-24T02:15:32.609Z,12.50
2022-09-24T02:18:06.523Z,12.50
2022-09-24T02:20:36.210Z,12.50
2022-09-24T02:23:06.097Z,12.50
2022-09-24T02:25:42.191Z,12.60
2022-09-24T02:28:09.841Z,12.60
2022-09-24T02:30:46.901Z,12.60
2022-09-24T02:33:34.207Z,12.60
2022-09-24T02:36:01.880Z,12.50
2022-09-24T02:38:29.271Z,12.50
2022-09-24T02:40:57.370Z,12.50
2022-09-24T02:43:26.047Z,12.50
2022-09-24T02:45:53.511Z,12.40
2022-09-24T02:48:21.053Z,12.40
2022-09-24T02:50:48.406Z,12.50
2022-09-24T02:53:15.819Z,12.40
2022-09-24T02:55:43.162Z,12.40
2022-09-24T02:58:10.858Z,12.40
2022-09-24T03:00:38.843Z,12.40
2022-09-24T03:03:06.303Z,12.40
2022-09-24T03:05:34.166Z,12.40
2022-09-24T03:08:01.863Z,12.40
2022-09-24T03:10:30.038Z,12.40
2022-09-24T03:12:58.156Z,12.40
2022-09-24T03:15:25.927Z,12.40
2022-09-24T03:17:53.314Z,12.40
2022-09-24T03:20:20.945Z,12.30
2022-09-24T03:22:52.198Z,12.40
2022-09-24T03:25:20.696Z,12.30
2022-09-24T03:27:48.121Z,12.30
2022-09-24T03:30:33.944Z,12.30
2022-09-24T03:33:01.445Z,12.30
2022-09-24T03:35:28.871Z,12.30
2022-09-24T03:37:56.317Z,12.20
2022-09-24T03:40:24.116Z,12.20
2022-09-24T03:42:51.578Z,12.20
2022-09-24T03:45:18.987Z,12.20
2022-09-24T03:47:46.488Z,12.20
2022-09-24T03:50:13.871Z,12.20
2022-09-24T03:52:41.516Z,12.10
2022-09-24T03:55:09.257Z,12.20
2022-09-24T03:57:36.698Z,12.10
2022-09-24T04:00:04.900Z,12.20
2022-09-24T04:02:32.362Z,12.20
2022-09-24T04:04:59.817Z,12.10
2022-09-24T04:07:27.164Z,12.20
2022-09-24T04:09:54.559Z,12.10
2022-09-24T04:12:23.021Z,12.10
2022-09-24T04:14:50.377Z,12.10
2022-09-24T04:17:17.836Z,12.10
2022-09-24T04:19:45.211Z,12.10
2022-09-24T04:22:12.688Z,12.10
2022-09-24T04:24:40.534Z,12.10
2022-09-24T04:27:07.919Z,12.00
2022-09-24T04:29:35.327Z,12.00
2022-09-24T04:32:03.528Z,12.00
2022-09-24T04:34:30.883Z,12.00
2022-09-24T04:36:58.233Z,11.90
2022-09-24T04:39:27.361Z,11.90
2022-09-24T04:41:54.871Z,11.90
2022-09-24T04:44:23.601Z,11.80
2022-09-24T04:46:51.085Z,11.80
2022-09-24T04:49:18.495Z,11.80
2022-09-24T04:51:45.963Z,11.80
2022-09-24T04:54:13.370Z,11.80
2022-09-24T04:56:40.792Z,11.80
2022-09-24T04:59:08.248Z,11.80
2022-09-24T05:01:36.170Z,11.80
2022-09-24T05:04:03.645Z,11.70
2022-09-24T05:06:30.992Z,11.70
2022-09-24T05:08:58.718Z,11.70
2022-09-24T05:11:26.181Z,11.60
2022-09-24T05:13:53.548Z,11.60
2022-09-24T05:16:21.010Z,11.60
2022-09-24T05:18:48.474Z,11.50
2022-09-24T05:21:15.907Z,11.50
2022-09-24T05:23:43.272Z,11.60
2022-09-24T05:26:29.290Z,11.60
2022-09-24T05:28:56.702Z,11.60
2022-09-24T05:31:24.157Z,11.50
2022-09-24T05:33:51.692Z,11.50
2022-09-24T05:36:19.567Z,11.50
2022-09-24T05:38:46.922Z,11.50
2022-09-24T05:41:14.304Z,11.50
2022-09-24T05:43:41.680Z,11.50
2022-09-24T05:46:09.208Z,11.50
2022-09-24T05:48:36.807Z,11.50
2022-09-24T05:51:05.403Z,11.50
2022-09-24T05:53:33.906Z,11.40
2022-09-24T05:56:01.603Z,11.40
2022-09-24T05:58:29.040Z,11.40
2022-09-24T06:01:00.657Z,11.40
2022-09-24T06:03:29.861Z,11.40
2022-09-24T06:06:02.088Z,11.40
2022-09-24T06:08:32.771Z,11.40
2022-09-24T06:11:02.520Z,11.40
2022-09-24T06:13:30.047Z,11.40
2022-09-24T06:16:12.661Z,11.40
2022-09-24T06:18:42.481Z,11.40
2022-09-24T06:21:15.094Z,11.30
2022-09-24T06:23:42.591Z,11.30
2022-09-24T06:26:11.992Z,11.40
2022-09-24T06:28:39.836Z,11.40
2022-09-24T06:31:09.273Z,11.40
2022-09-24T06:33:37.726Z,11.40
2022-09-24T06:36:05.590Z,11.40
2022-09-24T06:38:33.226Z,11.50
2022-09-24T06:41:02.171Z,11.50
2022-09-24T06:43:30.560Z,11.50
2022-09-24T06:45:59.288Z,11.50
2022-09-24T06:48:27.849Z,11.50
2022-09-24T06:50:56.530Z,11.50
2022-09-24T06:53:24.825Z,11.50
2022-09-24T06:55:53.400Z,11.60
2022-09-24T06:58:21.225Z,11.60
2022-09-24T07:00:58.917Z,11.60
2022-09-24T07:03:29.637Z,11.60
2022-09-24T07:06:01.070Z,11.70
2022-09-24T07:08:28.573Z,11.70
2022-09-24T07:10:56.145Z,11.70
2022-09-24T07:13:23.816Z,11.80
2022-09-24T07:15:52.341Z,11.80
2022-09-24T07:18:21.072Z,11.80
2022-09-24T07:20:55.405Z,11.80
2022-09-24T07:23:23.909Z,11.70
2022-09-24T07:25:56.155Z,11.90
2022-09-24T07:28:23.785Z,11.90
2022-09-24T07:30:58.833Z,11.80
2022-09-24T07:33:26.770Z,11.80
2022-09-24T07:35:54.259Z,11.90
2022-09-24T07:38:22.441Z,12.00
2022-09-24T07:40:49.953Z,12.00
2022-09-24T07:43:17.560Z,12.10
2022-09-24T07:45:45.317Z,12.10
2022-09-24T07:48:13.094Z,12.20
2022-09-24T07:50:42.664Z,12.20
2022-09-24T07:53:13.914Z,12.20
2022-09-24T07:55:41.576Z,12.30
2022-09-24T07:58:12.744Z,12.30
2022-09-24T08:00:40.558Z,12.40
2022-09-24T08:03:08.251Z,12.40
2022-09-24T08:05:35.777Z,12.40
2022-09-24T08:08:03.224Z,12.40
2022-09-24T08:10:30.784Z,12.50
2022-09-24T08:13:01.654Z,12.50
2022-09-24T08:15:29.120Z,12.50
2022-09-24T08:18:02.720Z,12.50
2022-09-24T08:20:31.658Z,12.60
2022-09-24T08:23:03.267Z,12.60
2022-09-24T08:25:31.820Z,12.70
2022-09-24T08:28:04.479Z,12.80
2022-09-24T08:30:32.314Z,12.90
2022-09-24T08:33:00.488Z,12.90
2022-09-24T08:35:27.918Z,13.00
2022-09-24T08:37:55.401Z,13.00
2022-09-24T08:40:26.458Z,13.10
2022-09-24T08:43:07.470Z,13.10
2022-09-24T08:46:07.073Z,13.20
2022-09-24T08:48:37.688Z,13.30
2022-09-24T08:51:20.624Z,13.50
2022-09-24T08:54:09.930Z,13.60
2022-09-24T08:56:44.021Z,13.60
2022-09-24T08:59:30.500Z,13.70
2022-09-24T09:02:19.949Z,13.70
2022-09-24T09:05:15.121Z,13.80
2022-09-24T09:07:49.597Z,13.90
2022-09-24T09:10:27.745Z,13.90
2022-09-24T09:13:24.117Z,14.00
2022-09-24T09:16:15.344Z,14.00
2022-09-24T09:18:46.870Z,14.00
2022-09-24T09:21:34.862Z,14.10
2022-09-24T09:24:03.824Z,14.20
2022-09-24T09:26:31.756Z,14.20
2022-09-24T09:29:01.550Z,14.10
2022-09-24T09:31:40.885Z,14.20
2022-09-24T09:34:11.183Z,14.30
2022-09-24T09:36:53.362Z,14.40
2022-09-24T09:39:37.497Z,14.50
2022-09-24T09:42:32.240Z,14.60
2022-09-24T09:45:18.626Z,14.70
2022-09-24T09:47:50.573Z,14.80
2022-09-24T09:50:53.324Z,14.90
2022-09-24T09:53:31.187Z,15.00
2022-09-24T09:56:00.206Z,15.00
2022-09-24T09:58:31.128Z,15.00
2022-09-24T10:01:06.971Z,15.10
2022-09-24T10:03:44.290Z,15.00
2022-09-24T10:06:14.128Z,15.10
2022-09-24T10:08:41.501Z,15.10
2022-09-24T10:11:16.209Z,15.20
2022-09-24T10:13:44.831Z,15.10
2022-09-24T10:16:15.815Z,15.10
2022-09-24T10:18:46.184Z,15.10
2022-09-24T10:21:35.858Z,15.20
2022-09-24T10:24:11.899Z,15.40
2022-09-24T10:26:45.071Z,15.40
2022-09-24T10:29:38.132Z,15.60
2022-09-24T10:32:06.564Z,15.60
2022-09-24T10:34:33.993Z,15.60
2022-09-24T10:37:15.215Z,15.60
2022-09-24T10:39:42.817Z,15.60
2022-09-24T10:42:24.706Z,15.60
2022-09-24T10:44:53.806Z,15.60
2022-09-24T10:47:57.594Z,15.70
2022-09-24T10:50:31.853Z,15.80
2022-09-24T10:53:32.752Z,15.90
2022-09-24T10:56:07.566Z,15.90
2022-09-24T10:59:07.726Z,15.90
2022-09-24T11:02:07.959Z,16.00
2022-09-24T11:05:15.547Z,16.10
2022-09-24T11:07:56.496Z,16.10
2022-09-24T11:10:44.695Z,16.20
2022-09-24T11:13:40.481Z,16.30
2022-09-24T11:16:32.417Z,16.30
2022-09-24T11:19:07.997Z,16.40
2022-09-24T11:22:10.533Z,16.30
2022-09-24T11:24:57.223Z,16.20
2022-09-24T11:27:51.578Z,16.20
2022-09-24T11:30:44.350Z,16.20
2022-09-24T11:33:38.123Z,16.20
2022-09-24T11:36:20.935Z,16.30
2022-09-24T11:39:12.595Z,16.40
2022-09-24T11:42:20.614Z,16.60
2022-09-24T11:45:02.021Z,17.10
2022-09-24T11:47:30.422Z,17.30
2022-09-24T11:50:16.298Z,17.40
2022-09-24T11:52:53.276Z,17.30
2022-09-24T11:55:31.740Z,17.00
2022-09-24T11:58:30.855Z,17.00
2022-09-24T12:01:10.284Z,17.10
2022-09-24T12:04:10.517Z,17.50
2022-09-24T12:07:06.684Z,18.00
2022-09-24T12:09:39.774Z,18.00
2022-09-24T12:12:17.070Z,18.10
2022-09-24T12:14:59.210Z,18.50
2022-09-24T12:17:41.105Z,18.90
2022-09-24T12:20:30.869Z,18.60
2022-09-24T12:23:08.186Z,18.00
2022-09-24T12:25:45.180Z,17.70
2022-09-24T12:28:35.658Z,18.10
2022-09-24T12:31:29.184Z,18.20
2022-09-24T12:34:08.252Z,18.60
2022-09-24T12:37:02.564Z,18.30
2022-09-24T12:39:38.741Z,17.70
2022-09-24T12:42:11.333Z,17.30
2022-09-24T12:44:54.569Z,17.10
2022-09-24T12:47:31.571Z,17.10
2022-09-24T12:50:05.375Z,17.10
2022-09-24T12:52:39.963Z,17.10
2022-09-24T12:55:21.185Z,17.10
2022-09-24T12:58:05.824Z,17.50
2022-09-24T13:00:41.427Z,18.00
2022-09-24T13:04:01.227Z,18.90
2022-09-24T13:06:34.653Z,19.70
2022-09-24T13:09:35.696Z,20.30
2022-09-24T13:12:05.814Z,20.50
2022-09-24T13:14:35.286Z,21.20
2022-09-24T13:17:06.885Z,21.20
2022-09-24T13:19:36.436Z,21.10
2022-09-24T13:22:04.701Z,20.10
2022-09-24T13:24:45.940Z,19.20
2022-09-24T13:27:31.659Z,18.60
2022-09-24T13:30:05.499Z,18.40
2022-09-24T13:32:38.761Z,18.60
2022-09-24T13:35:21.008Z,19.30
2022-09-24T13:38:23.058Z,19.80
2022-09-24T13:41:02.553Z,20.30
2022-09-24T13:43:56.432Z,20.10
2022-09-24T13:46:25.688Z,20.00
2022-09-24T13:49:01.990Z,20.40
2022-09-24T13:51:36.059Z,20.40
2022-09-24T13:54:46.654Z,20.80
2022-09-24T13:57:42.753Z,21.10
2022-09-24T14:00:16.631Z,20.40
2022-09-24T14:03:00.319Z,19.50
2022-09-24T14:05:29.263Z,18.70
2022-09-24T14:08:04.858Z,18.10
2022-09-24T14:10:33.396Z,17.80
2022-09-24T14:13:22.823Z,17.50
2022-09-24T14:15:57.546Z,17.40
2022-09-24T14:18:27.705Z,17.30
2022-09-24T14:21:30.792Z,17.30
2022-09-24T14:24:23.174Z,17.20
2022-09-24T14:27:11.778Z,17.20
2022-09-24T14:29:58.635Z,17.20
2022-09-24T14:32:38.334Z,17.20
2022-09-24T14:35:32.907Z,17.10
2022-09-24T14:38:08.817Z,17.10
2022-09-24T14:40:45.298Z,17.20
2022-09-24T14:43:38.486Z,17.20
2022-09-24T14:46:21.003Z,17.20
2022-09-24T14:48:48.906Z,17.10
2022-09-24T14:51:28.834Z,17.20
2022-09-24T14:54:28.757Z,17.10
2022-09-24T14:56:56.241Z,17.20
2022-09-24T14:59:36.155Z,17.30
2022-09-24T15:02:23.818Z,17.30
2022-09-24T15:04:54.866Z,17.30
2022-09-24T15:07:25.495Z,17.40
2022-09-24T15:10:00.640Z,17.50
2022-09-24T15:12:34.042Z,17.60
2022-09-24T15:15:05.751Z,17.70
2022-09-24T15:17:35.290Z,17.80
2022-09-24T15:20:04.471Z,17.70
2022-09-24T15:22:32.069Z,17.60
2022-09-24T15:25:02.073Z,17.50
2022-09-24T15:27:32.163Z,17.50
2022-09-24T15:30:01.428Z,17.40
2022-09-24T15:32:31.233Z,17.30
2022-09-24T15:34:58.837Z,17.20
2022-09-24T15:37:28.289Z,17.10
2022-09-24T15:40:07.845Z,17.00
2022-09-24T15:42:35.439Z,16.90
2022-09-24T15:45:02.898Z,16.80
2022-09-24T15:47:30.438Z,16.80
2022-09-24T15:49:58.211Z,16.70
2022-09-24T15:52:28.546Z,16.70
2022-09-24T15:54:57.957Z,16.60
2022-09-24T15:57:28.571Z,16.50
2022-09-24T15:59:55.943Z,16.50
2022-09-24T16:02:29.198Z,16.50
2022-09-24T16:05:02.695Z,16.40
2022-09-24T16:07:31.235Z,16.40
2022-09-24T16:09:58.666Z,16.30
2022-09-24T16:12:28.188Z,16.30
2022-09-24T16:14:59.137Z,16.20
2022-09-24T16:17:29.498Z,16.20
2022-09-24T16:19:56.956Z,16.20
2022-09-24T16:22:24.785Z,16.10
2022-09-24T16:24:52.221Z,16.10
2022-09-24T16:27:19.632Z,16.10
2022-09-24T16:29:47.128Z,16.00
2022-09-24T16:32:14.543Z,16.00
2022-09-24T16:34:42.101Z,16.10
2022-09-24T16:37:10.028Z,16.10
2022-09-24T16:39:37.562Z,16.10
2022-09-24T16:42:05.050Z,16.10
2022-09-24T16:44:32.472Z,16.10
2022-09-24T16:47:00.060Z,16.10
2022-09-24T16:49:27.796Z,16.10
2022-09-24T16:51:55.877Z,16.10
2022-09-24T16:54:23.428Z,16.10
2022-09-24T16:56:52.185Z,16.10
2022-09-24T16:59:19.844Z,16.10
2022-09-24T17:01:47.305Z,16.10
2022-09-24T17:04:14.754Z,16.10
2022-09-24T17:06:45.064Z,16.10
2022-09-24T17:09:31.599Z,16.00
2022-09-24T17:11:58.954Z,16.00
2022-09-24T17:14:26.468Z,16.00
2022-09-24T17:16:53.952Z,16.00
2022-09-24T17:19:21.465Z,16.00
2022-09-24T17:21:52.233Z,16.00
2022-09-24T17:24:21.974Z,16.00
2022-09-24T17:26:49.889Z,16.00
2022-09-24T17:29:20.739Z,16.00
2022-09-24T17:31:48.781Z,15.90
2022-09-24T17:34:16.809Z,15.90
2022-09-24T17:36:44.274Z,15.90
2022-09-24T17:39:13.120Z,15.90
2022-09-24T17:41:40.586Z,15.90
2022-09-24T17:44:09.412Z,15.90
2022-09-24T17:46:36.927Z,15.90
2022-09-24T17:49:04.623Z,15.80
2022-09-24T17:51:36.710Z,15.80
2022-09-24T17:54:10.865Z,15.80
2022-09-24T17:56:40.416Z,15.80
2022-09-24T17:59:12.663Z,15.80
2022-09-24T18:01:42.947Z,15.70
2022-09-24T18:04:16.339Z,15.80
2022-09-24T18:06:45.800Z,15.70
2022-09-24T18:09:14.832Z,15.70
2022-09-24T18:11:47.676Z,15.70
2022-09-24T18:14:17.458Z,15.70
2022-09-24T18:16:45.761Z,15.70
2022-09-24T18:19:17.029Z,15.70
2022-09-24T18:21:45.824Z,15.70
2022-09-24T18:24:14.431Z,15.70
2022-09-24T18:26:41.969Z,15.60
2022-09-24T18:29:15.656Z,15.60
2022-09-24T18:31:43.804Z,15.50
2022-09-24T18:34:15.822Z,15.40
2022-09-24T18:36:44.998Z,15.30
2022-09-24T18:39:17.676Z,15.30
2022-09-24T18:41:47.676Z,15.20
2022-09-24T18:44:15.109Z,15.20
2022-09-24T18:46:43.018Z,15.20
2022-09-24T18:49:11.990Z,15.10
2022-09-24T18:51:39.659Z,15.10
2022-09-24T18:54:12.204Z,15.10
2022-09-24T18:56:40.429Z,15.00
2022-09-24T18:59:12.215Z,15.00
2022-09-24T19:01:41.361Z,15.00
2022-09-24T19:04:10.794Z,14.90
2022-09-24T19:06:41.240Z,14.90
2022-09-24T19:09:10.659Z,14.90
2022-09-24T19:11:38.564Z,14.90
2022-09-24T19:14:06.225Z,14.90
2022-09-24T19:16:33.724Z,14.80
2022-09-24T19:19:01.600Z,14.90
2022-09-24T19:21:29.916Z,14.90
2022-09-24T19:23:59.152Z,14.90
2022-09-24T19:26:31.358Z,14.80
2022-09-24T19:29:00.078Z,14.80
2022-09-24T19:31:30.496Z,14.80
2022-09-24T19:34:00.217Z,14.80
2022-09-24T19:36:27.637Z,14.80
2022-09-24T19:38:55.660Z,14.80
2022-09-24T19:41:26.376Z,14.70
2022-09-24T19:43:54.878Z,14.70
2022-09-24T19:46:26.891Z,14.60
2022-09-24T19:48:56.217Z,14.60
2022-09-24T19:51:41.995Z,14.60
2022-09-24T19:54:11.108Z,14.60
2022-09-24T19:56:38.908Z,14.50
2022-09-24T19:59:08.001Z,14.50
2022-09-24T20:01:35.687Z,14.40
2022-09-24T20:04:06.903Z,14.40
2022-09-24T20:06:36.358Z,14.40
2022-09-24T20:09:04.984Z,14.40
2022-09-24T20:11:33.774Z,14.30
2022-09-24T20:14:01.907Z,14.30
2022-09-24T20:16:32.684Z,14.30
2022-09-24T20:19:01.503Z,14.30
2022-09-24T20:21:33.837Z,14.30
2022-09-24T20:24:03.624Z,14.30
2022-09-24T20:26:50.113Z,14.30
2022-09-24T20:29:19.820Z,14.20
2022-09-24T20:31:52.093Z,14.30
2022-09-24T20:34:21.971Z,14.20
2022-09-24T20:36:49.514Z,14.20
2022-09-24T20:39:17.673Z,14.20
2022-09-24T20:41:45.445Z,14.20
2022-09-24T20:44:13.024Z,14.20
2022-09-24T20:46:40.632Z,14.20
2022-09-24T20:49:08.084Z,14.10
2022-09-24T20:51:35.484Z,14.10
2022-09-24T20:54:02.933Z,14.00
2022-09-24T20:56:30.817Z,14.00
2022-09-24T20:58:58.874Z,13.90
2022-09-24T21:01:26.941Z,13.90
2022-09-24T21:03:55.193Z,13.90
2022-09-24T21:06:26.101Z,13.90
2022-09-24T21:08:55.011Z,13.90
2022-09-24T21:11:28.384Z,13.80
2022-09-24T21:14:01.009Z,13.80
2022-09-24T21:16:34.499Z,13.80
2022-09-24T21:19:04.821Z,13.70
2022-09-24T21:21:38.592Z,13.70
2022-09-24T21:24:10.517Z,13.70
2022-09-24T21:26:39.424Z,13.70
2022-09-24T21:29:11.550Z,13.70
2022-09-24T21:31:40.111Z,13.60
2022-09-24T21:34:08.631Z,13.70
2022-09-24T21:36:43.731Z,13.70
2022-09-24T21:39:27.009Z,13.70
2022-09-24T21:41:59.742Z,13.70
2022-09-24T21:44:30.646Z,13.70
2022-09-24T21:46:58.471Z,13.60
2022-09-24T21:49:26.274Z,13.60
2022-09-24T21:51:57.035Z,13.60
2022-09-24T21:54:24.513Z,13.60
2022-09-24T21:56:54.753Z,13.60
2022-09-24T21:59:41.060Z,13.50
2022-09-24T22:02:10.124Z,13.60
2022-09-24T22:04:37.972Z,13.50
2022-09-24T22:07:05.514Z,13.50
2022-09-24T22:09:33.631Z,13.60
2022-09-24T22:12:04.626Z,13.50
2022-09-24T22:14:34.675Z,13.50
2022-09-24T22:17:03.868Z,13.50
2022-09-24T22:19:31.665Z,13.50
2022-09-24T22:21:59.170Z,13.50
2022-09-24T22:24:26.804Z,13.50
2022-09-24T22:26:54.377Z,13.50
2022-09-24T22:29:21.816Z,13.50
2022-09-24T22:31:49.187Z,13.50
2022-09-24T22:34:35.355Z,13.50
2022-09-24T22:37:05.956Z,13.40
2022-09-24T22:39:34.416Z,13.40
2022-09-24T22:42:02.060Z,13.40
2022-09-24T22:44:29.497Z,13.40
2022-09-24T22:46:57.155Z,13.40
2022-09-24T22:49:24.922Z,13.40
2022-09-24T22:51:52.354Z,13.40
2022-09-24T22:54:19.837Z,13.40
2022-09-24T22:56:47.230Z,13.40
2022-09-24T22:59:14.718Z,13.40
2022-09-24T23:01:43.975Z,13.40
2022-09-24T23:04:15.161Z,13.40
2022-09-24T23:06:43.829Z,13.40
2022-09-24T23:09:11.821Z,13.40
2022-09-24T23:11:39.745Z,13.30
2022-09-24T23:14:12.737Z,13.30
2022-09-24T23:16:42.218Z,13.30
2022-09-24T23:19:18.948Z,13.30
2022-09-24T23:21:46.585Z,13.20
2022-09-24T23:24:19.656Z,13.20
2022-09-24T23:26:47.064Z,13.20
2022-09-24T23:29:15.428Z,13.10
2022-09-24T23:31:43.635Z,13.10
2022-09-24T23:34:12.972Z,13.10
2022-09-24T23:36:40.934Z,13.00
2022-09-24T23:39:08.353Z,13.00
2022-09-24T23:41:35.774Z,13.00
2022-09-24T23:44:04.247Z,13.00
2022-09-24T23:46:33.828Z,13.00
2022-09-24T23:49:01.336Z,13.00
2022-09-24T23:51:28.804Z,13.00
2022-09-24T23:53:56.159Z,13.10
2022-09-24T23:56:23.597Z,13.00
2022-09-24T23:58:50.972Z,13.00
